Time;durP1;ratioP1;P1;durP2;ratioP2;P2;SDS_P1;SDS_P2;PMS_P1;PMS_P2;Temp;Humidity;BMP_temperature;BMP_pressure;BME280_temperature;BME280_humidity;BME280_pressure;Samples;Min_cycle;Max_cycle;Signal;HPM_P1;HPM_P2
2022/10/06 00:01:53;;;;;;;12.20;1.90;;;38.30;42.60;;;;;;5044878;28;20025;-64
2022/10/06 00:04:19;;;;;;;12.65;2.33;;;38.20;43.00;;;;;;5044051;28;20029;-64
2022/10/06 00:06:46;;;;;;;20.67;2.05;;;38.10;42.10;;;;;;5039865;28;20052;-65
2022/10/06 00:09:12;;;;;;;18.42;2.15;;;38.10;41.90;;;;;;5040123;28;20036;-64
2022/10/06 00:11:39;;;;;;;16.70;2.00;;;38.10;41.90;;;;;;5040556;28;20087;-66
2022/10/06 00:14:05;;;;;;;13.80;2.20;;;38.00;41.20;;;;;;5044437;28;20112;-64
2022/10/06 00:16:31;;;;;;;11.38;2.13;;;38.00;42.00;;;;;;5042515;28;20462;-65
2022/10/06 00:18:58;;;;;;;13.93;3.10;;;38.00;41.90;;;;;;5044125;28;20053;-65
2022/10/06 00:21:24;;;;;;;9.73;2.40;;;37.90;42.10;;;;;;5038451;28;20116;-65
2022/10/06 00:23:50;;;;;;;12.98;2.17;;;37.90;42.30;;;;;;5044047;28;20093;-66
2022/10/06 00:26:17;;;;;;;13.27;2.03;;;37.80;42.10;;;;;;5045145;28;20032;-64
2022/10/06 00:28:46;;;;;;;10.48;2.00;;;37.70;42.30;;;;;;5043895;28;20497;-65
2022/10/06 00:31:13;;;;;;;14.15;2.50;;;37.50;42.70;;;;;;5045095;28;20102;-65
2022/10/06 00:33:40;;;;;;;9.02;2.10;;;37.40;42.00;;;;;;5042839;28;20025;-67
2022/10/06 00:36:07;;;;;;;13.40;2.58;;;37.30;42.40;;;;;;5044907;28;21260;-64
2022/10/06 00:38:34;;;;;;;18.77;2.33;;;37.30;42.50;;;;;;5043002;28;20115;-64
2022/10/06 00:41:00;;;;;;;10.82;2.45;;;37.30;42.00;;;;;;5044409;28;20032;-67
2022/10/06 00:43:57;;;;;;;10.07;1.80;;;37.30;43.00;;;;;;5041614;28;20463;-66
2022/10/06 00:46:36;;;;;;;12.52;3.20;;;37.10;42.70;;;;;;5038538;28;20037;-66
2022/10/06 00:49:13;;;;;;;14.35;2.47;;;37.00;42.70;;;;;;5040588;28;20458;-67
2022/10/06 00:51:44;;;;;;;28.15;2.88;;;36.90;42.40;;;;;;5037893;28;20078;-65
2022/10/06 00:54:12;;;;;;;7.47;2.22;;;36.70;42.90;;;;;;5039317;28;20053;-66
2022/10/06 00:56:39;;;;;;;13.30;2.33;;;36.60;43.40;;;;;;5042725;28;20032;-70
2022/10/06 00:59:12;;;;;;;16.58;2.50;;;36.50;43.90;;;;;;5042416;28;20021;-66
2022/10/06 01:01:43;;;;;;;13.50;2.25;;;36.40;43.30;;;;;;5042441;28;20022;-69
2022/10/06 01:04:13;;;;;;;14.73;2.13;;;36.30;43.50;;;;;;5041344;28;20327;-67
2022/10/06 01:06:44;;;;;;;10.05;2.00;;;36.30;43.90;;;;;;5040573;28;20112;-68
2022/10/06 01:09:12;;;;;;;9.50;1.63;;;36.20;44.00;;;;;;5045472;28;20033;-66
2022/10/06 01:11:38;;;;;;;12.25;1.73;;;36.10;44.80;;;;;;5038494;28;20061;-66
2022/10/06 01:14:05;;;;;;;16.00;2.60;;;36.00;44.90;;;;;;5043006;28;20033;-69
2022/10/06 01:16:36;;;;;;;14.68;2.00;;;35.90;44.50;;;;;;5043449;28;20035;-72
2022/10/06 01:19:09;;;;;;;5.63;1.90;;;36.70;43.90;;;;;;5037429;28;20022;-69
2022/10/06 01:21:45;;;;;;;15.90;2.35;;;36.80;43.60;;;;;;5043770;28;20041;-67
2022/10/06 01:24:12;;;;;;;9.75;2.03;;;36.90;43.90;;;;;;5048657;28;20030;-72
2022/10/06 01:26:42;;;;;;;9.13;2.20;;;37.00;43.70;;;;;;5041725;28;20033;-69
2022/10/06 01:29:09;;;;;;;15.15;2.40;;;37.10;44.00;;;;;;5038287;28;20033;-69
2022/10/06 01:31:36;;;;;;;23.50;2.95;;;36.90;44.60;;;;;;5044169;28;20047;-70
2022/10/06 01:34:02;;;;;;;27.42;3.75;;;36.90;44.30;;;;;;5044241;28;20493;-71
2022/10/06 01:36:29;;;;;;;14.40;3.33;;;36.90;44.30;;;;;;5038697;28;20061;-70
2022/10/06 01:38:55;;;;;;;10.10;2.30;;;36.70;44.40;;;;;;5037727;28;20052;-69
2022/10/06 01:41:23;;;;;;;28.60;3.25;;;36.60;44.90;;;;;;5041298;28;20028;-70
2022/10/06 01:43:50;;;;;;;18.10;3.17;;;36.60;45.00;;;;;;5042565;28;20021;-68
2022/10/06 01:46:16;;;;;;;20.83;3.35;;;36.70;45.10;;;;;;5042097;28;20037;-69
2022/10/06 01:48:42;;;;;;;15.23;3.78;;;36.70;45.20;;;;;;5040533;28;20037;-68
2022/10/06 01:51:14;;;;;;;16.77;3.13;;;36.60;45.60;;;;;;5039135;28;20026;-69
2022/10/06 01:53:41;;;;;;;17.70;3.60;;;36.50;46.10;;;;;;5037056;28;20032;-70
2022/10/06 01:56:07;;;;;;;20.27;3.67;;;36.60;47.00;;;;;;5036116;28;20081;-70
2022/10/06 01:58:34;;;;;;;28.42;3.00;;;36.70;47.90;;;;;;5039879;28;20508;-68
2022/10/06 02:01:08;;;;;;;30.85;4.05;;;36.80;48.40;;;;;;5038897;28;20029;-67
2022/10/06 02:03:36;;;;;;;24.15;5.38;;;36.70;48.60;;;;;;5041101;28;20017;-68
2022/10/06 02:06:03;;;;;;;26.65;5.88;;;36.70;49.10;;;;;;5040795;28;20080;-68
2022/10/06 02:08:29;;;;;;;34.10;6.30;;;36.50;49.60;;;;;;5039503;28;20021;-67
2022/10/06 02:10:56;;;;;;;29.40;7.55;;;36.50;49.40;;;;;;5043554;28;20033;-68
2022/10/06 02:13:26;;;;;;;24.20;6.80;;;36.40;49.80;;;;;;5040917;28;20025;-68
2022/10/06 02:15:57;;;;;;;34.22;4.60;;;36.40;50.00;;;;;;5037733;28;20029;-67
2022/10/06 02:18:23;;;;;;;31.75;4.57;;;36.20;49.90;;;;;;5039215;28;20026;-69
2022/10/06 02:20:50;;;;;;;35.00;4.95;;;36.10;50.30;;;;;;5039493;28;20543;-68
2022/10/06 02:23:16;;;;;;;31.35;4.68;;;35.90;50.60;;;;;;5040887;28;20553;-71
2022/10/06 02:25:43;;;;;;;35.22;5.72;;;35.90;50.80;;;;;;5039770;28;20076;-68
2022/10/06 02:28:09;;;;;;;35.00;5.97;;;35.90;50.90;;;;;;5039818;28;20029;-68
2022/10/06 02:30:36;;;;;;;38.65;6.47;;;35.80;51.30;;;;;;5042182;28;20052;-74
2022/10/06 02:33:02;;;;;;;34.20;5.85;;;35.50;51.70;;;;;;5037257;28;20055;-66
2022/10/06 02:35:28;;;;;;;37.65;6.32;;;35.40;52.10;;;;;;5042272;28;20086;-69
2022/10/06 02:37:55;;;;;;;31.58;5.88;;;35.10;52.60;;;;;;5042956;28;20116;-67
2022/10/06 02:40:21;;;;;;;39.38;5.68;;;34.80;53.00;;;;;;5038909;28;20022;-67
2022/10/06 02:42:48;;;;;;;33.72;4.93;;;34.60;53.20;;;;;;5043430;28;20039;-66
2022/10/06 02:45:15;;;;;;;24.33;3.53;;;34.50;53.50;;;;;;5044337;28;20021;-68
2022/10/06 02:47:41;;;;;;;26.77;4.03;;;34.40;53.50;;;;;;5042306;28;20029;-68
2022/10/06 02:50:08;;;;;;;18.17;2.95;;;34.30;53.80;;;;;;5041656;28;20028;-68
2022/10/06 02:52:39;;;;;;;31.77;6.40;;;34.20;53.80;;;;;;5041277;28;20079;-67
2022/10/06 02:55:07;;;;;;;26.55;5.45;;;34.10;54.20;;;;;;5045353;28;20398;-68
2022/10/06 02:57:33;;;;;;;41.00;6.25;;;34.10;54.10;;;;;;5040708;28;20425;-69
2022/10/06 03:00:00;;;;;;;26.65;4.60;;;34.00;54.40;;;;;;5040243;28;20087;-69
2022/10/06 03:02:29;;;;;;;25.48;4.70;;;33.90;54.40;;;;;;5041330;28;20108;-67
2022/10/06 03:04:56;;;;;;;23.75;4.30;;;33.90;54.40;;;;;;5038709;28;20033;-69
2022/10/06 03:07:22;;;;;;;38.28;4.75;;;33.80;54.80;;;;;;5039234;28;20029;-69
2022/10/06 03:09:48;;;;;;;27.83;4.20;;;33.80;54.70;;;;;;5036099;28;20479;-68
2022/10/06 03:12:15;;;;;;;25.40;4.35;;;33.70;54.70;;;;;;5038577;28;20029;-67
2022/10/06 03:14:41;;;;;;;36.58;4.53;;;33.60;55.20;;;;;;5038932;28;20029;-67
2022/10/06 03:17:08;;;;;;;27.20;4.75;;;33.50;55.40;;;;;;5035491;28;20108;-66
2022/10/06 03:19:36;;;;;;;26.30;4.20;;;33.50;55.80;;;;;;5039202;28;20045;-65
2022/10/06 03:22:04;;;;;;;24.83;5.43;;;33.30;55.70;;;;;;5042255;28;20033;-66
2022/10/06 03:24:30;;;;;;;31.20;5.10;;;33.30;56.10;;;;;;5038433;28;20017;-69
2022/10/06 03:26:57;;;;;;;45.10;5.00;;;33.20;56.10;;;;;;5037993;28;20029;-67
2022/10/06 03:29:23;;;;;;;30.42;5.40;;;33.10;56.30;;;;;;5042420;28;20037;-69
2022/10/06 03:31:50;;;;;;;29.00;4.35;;;33.10;55.80;;;;;;5040658;28;20031;-69
2022/10/06 03:34:16;;;;;;;30.00;4.72;;;33.00;55.80;;;;;;5044543;28;20100;-67
2022/10/06 03:36:43;;;;;;;29.75;4.70;;;33.00;55.90;;;;;;5038613;28;20033;-67
2022/10/06 03:39:09;;;;;;;27.35;4.50;;;32.90;55.80;;;;;;5045342;28;20017;-69
2022/10/06 03:41:37;;;;;;;40.55;5.57;;;32.90;55.70;;;;;;5041452;28;20071;-64
2022/10/06 03:44:04;;;;;;;26.20;4.47;;;32.90;55.60;;;;;;5044422;28;20556;-65
2022/10/06 03:46:34;;;;;;;28.65;4.63;;;32.90;55.60;;;;;;5037867;28;20030;-66
2022/10/06 03:49:00;;;;;;;21.85;4.10;;;32.90;55.70;;;;;;5039863;28;20025;-66
2022/10/06 03:51:30;;;;;;;18.25;3.78;;;32.80;55.90;;;;;;5044079;28;20033;-65
2022/10/06 03:53:57;;;;;;;31.27;3.33;;;32.80;56.10;;;;;;5041165;28;20021;-66
2022/10/06 03:56:27;;;;;;;16.92;2.88;;;32.70;56.50;;;;;;5041414;28;20478;-65
2022/10/06 03:59:00;;;;;;;25.90;6.43;;;32.60;57.10;;;;;;5041531;28;20079;-69
2022/10/06 04:01:29;;;;;;;18.63;5.85;;;32.60;57.80;;;;;;5045594;28;20377;-70
2022/10/06 04:03:57;;;;;;;18.58;4.63;;;33.20;58.00;;;;;;5041108;28;20084;-69
2022/10/06 04:06:26;;;;;;;24.70;4.30;;;33.40;57.60;;;;;;5038627;28;20027;-70
2022/10/06 04:08:53;;;;;;;17.80;3.55;;;33.70;57.50;;;;;;5040648;28;20031;-68
2022/10/06 04:11:23;;;;;;;27.35;4.40;;;33.80;57.10;;;;;;5042694;28;20032;-67
2022/10/06 04:13:59;;;;;;;14.27;3.25;;;33.80;57.00;;;;;;5043538;28;20451;-68
2022/10/06 04:16:28;;;;;;;11.70;3.15;;;33.70;57.50;;;;;;5042931;28;20363;-69
2022/10/06 04:18:59;;;;;;;23.75;2.85;;;33.60;58.50;;;;;;5047963;28;20032;-67
2022/10/06 04:21:28;;;;;;;19.23;2.70;;;33.40;59.20;;;;;;5043793;28;20037;-69
2022/10/06 04:23:56;;;;;;;19.95;2.58;;;33.50;59.60;;;;;;5038841;28;20025;-70
2022/10/06 04:26:25;;;;;;;15.98;2.65;;;33.50;59.50;;;;;;5042074;28;20474;-70
2022/10/06 04:28:53;;;;;;;18.80;2.40;;;33.40;59.70;;;;;;5042899;28;20550;-69
2022/10/06 04:31:22;;;;;;;23.17;2.90;;;33.30;60.00;;;;;;5043599;28;20566;-68
2022/10/06 04:33:54;;;;;;;12.77;2.03;;;33.10;60.30;;;;;;5042986;28;20024;-69
2022/10/06 04:36:25;;;;;;;15.93;2.70;;;33.10;60.70;;;;;;5042312;28;20473;-67
2022/10/06 04:38:57;;;;;;;18.08;3.45;;;33.10;60.60;;;;;;5043725;28;20083;-67
2022/10/06 04:41:26;;;;;;;11.82;2.35;;;33.00;61.00;;;;;;5039194;28;20072;-68
2022/10/06 04:43:54;;;;;;;11.10;2.70;;;33.00;61.10;;;;;;5041120;28;20029;-68
2022/10/06 04:46:22;;;;;;;20.88;2.58;;;32.90;61.10;;;;;;5046026;28;20071;-68
2022/10/06 04:48:53;;;;;;;21.10;2.95;;;32.90;61.20;;;;;;5039539;28;20111;-70
2022/10/06 04:51:22;;;;;;;22.38;3.83;;;32.90;61.50;;;;;;5042569;28;20486;-70
2022/10/06 04:53:48;;;;;;;21.05;3.70;;;32.80;61.40;;;;;;5039569;28;20025;-71
2022/10/06 04:56:30;;;;;;;21.55;3.80;;;32.70;62.00;;;;;;5044124;28;20024;-71
2022/10/06 04:58:57;;;;;;;16.75;4.65;;;32.60;62.20;;;;;;5041739;28;20017;-69
2022/10/06 05:01:29;;;;;;;21.90;4.50;;;32.60;62.60;;;;;;5043600;28;20044;-72
2022/10/06 05:03:57;;;;;;;13.07;3.55;;;32.60;62.30;;;;;;5044985;28;20501;-71
2022/10/06 05:06:26;;;;;;;11.57;2.55;;;32.60;62.10;;;;;;5042143;28;20032;-71
2022/10/06 05:08:55;;;;;;;24.08;2.45;;;32.50;61.50;;;;;;5040813;28;20025;-70
2022/10/06 05:11:23;;;;;;;13.60;2.42;;;32.50;60.90;;;;;;5037622;28;20040;-67
2022/10/06 05:13:52;;;;;;;18.40;2.83;;;32.50;60.70;;;;;;5040331;28;20025;-71
2022/10/06 05:16:19;;;;;;;11.25;2.28;;;32.50;60.30;;;;;;5040484;28;20469;-70
2022/10/06 05:18:46;;;;;;;23.55;3.72;;;32.50;59.60;;;;;;5041702;28;20112;-70
2022/10/06 05:21:22;;;;;;;12.27;3.00;;;32.40;59.90;;;;;;5036628;28;20041;-71
2022/10/06 05:23:48;;;;;;;13.63;3.60;;;32.40;60.00;;;;;;5042742;28;20021;-72
2022/10/06 05:26:24;;;;;;;24.35;5.65;;;32.40;59.70;;;;;;5041332;28;20017;-67
2022/10/06 05:28:50;;;;;;;19.30;5.10;;;32.40;59.60;;;;;;5043540;28;20025;-70
2022/10/06 05:31:17;;;;;;;31.23;5.22;;;32.30;59.60;;;;;;5045100;28;20028;-72
2022/10/06 05:33:44;;;;;;;19.33;4.60;;;32.30;59.80;;;;;;5038521;28;20475;-70
2022/10/06 05:36:16;;;;;;;21.00;4.47;;;32.20;59.70;;;;;;5043279;28;20552;-68
2022/10/06 05:38:43;;;;;;;17.33;4.15;;;32.10;60.00;;;;;;5045385;28;20021;-68
2022/10/06 05:41:16;;;;;;;19.40;4.38;;;32.10;61.40;;;;;;5039884;28;20029;-68
2022/10/06 05:43:43;;;;;;;17.08;3.72;;;32.10;61.10;;;;;;5041690;28;20025;-67
2022/10/06 05:46:23;;;;;;;11.85;3.20;;;32.10;61.40;;;;;;5038998;28;20104;-70
2022/10/06 05:48:54;;;;;;;15.75;3.38;;;32.00;61.40;;;;;;5040376;28;20029;-68
2022/10/06 05:51:22;;;;;;;19.10;3.17;;;32.00;61.20;;;;;;5036940;28;20075;-69
2022/10/06 05:53:49;;;;;;;14.88;2.47;;;31.90;61.50;;;;;;5037539;28;20045;-70
2022/10/06 05:56:19;;;;;;;11.05;2.35;;;31.80;61.80;;;;;;5041480;28;20052;-70
2022/10/06 05:58:51;;;;;;;11.73;2.40;;;31.80;62.20;;;;;;5039436;28;20044;-68
2022/10/06 06:01:22;;;;;;;14.60;2.83;;;31.70;62.70;;;;;;5038742;28;20109;-70
2022/10/06 06:03:51;;;;;;;12.05;3.05;;;31.70;63.00;;;;;;5044046;28;20404;-70
2022/10/06 06:06:26;;;;;;;17.23;3.33;;;31.60;63.20;;;;;;5045169;28;20017;-71
2022/10/06 06:09:02;;;;;;;12.43;3.20;;;31.50;63.60;;;;;;5040070;28;20040;-69
2022/10/06 06:11:30;;;;;;;14.75;2.72;;;31.50;64.00;;;;;;5039767;28;20052;-69
2022/10/06 06:13:59;;;;;;;12.55;2.47;;;31.40;64.50;;;;;;5040614;28;20037;-70
2022/10/06 06:16:27;;;;;;;12.70;2.65;;;31.40;64.60;;;;;;5042483;28;20029;-66
2022/10/06 06:18:54;;;;;;;7.20;2.38;;;31.40;64.90;;;;;;5042762;28;20025;-67
2022/10/06 06:21:20;;;;;;;24.67;2.55;;;31.30;65.10;;;;;;5041640;28;20112;-68
2022/10/06 06:23:48;;;;;;;10.02;2.15;;;31.30;65.40;;;;;;5036702;28;20051;-69
2022/10/06 06:26:26;;;;;;;13.55;2.35;;;31.30;65.50;;;;;;5041314;28;20032;-65
2022/10/06 06:29:01;;;;;;;14.63;2.83;;;31.10;65.80;;;;;;5038082;28;20029;-66
2022/10/06 06:31:30;;;;;;;19.33;2.50;;;31.10;66.10;;;;;;5040642;28;20382;-68
2022/10/06 06:33:59;;;;;;;11.85;2.20;;;31.10;66.30;;;;;;5043569;28;20071;-66
2022/10/06 06:36:34;;;;;;;13.80;2.65;;;31.00;66.30;;;;;;5042516;28;20032;-67
2022/10/06 06:39:03;;;;;;;11.63;2.57;;;31.00;66.50;;;;;;5045985;28;20029;-65
2022/10/06 06:41:34;;;;;;;12.82;3.15;;;30.90;66.70;;;;;;5036773;28;20018;-65
2022/10/06 06:44:00;;;;;;;20.15;3.35;;;30.90;66.80;;;;;;5038472;28;20057;-68
2022/10/06 06:46:30;;;;;;;11.32;2.90;;;30.80;67.00;;;;;;5044520;28;20470;-65
2022/10/06 06:49:03;;;;;;;28.30;3.75;;;30.80;66.90;;;;;;5042830;28;20067;-65
2022/10/06 06:51:49;;;;;;;17.75;3.22;;;30.70;66.60;;;;;;5045382;28;20489;-66
2022/10/06 06:54:16;;;;;;;;;;;30.70;66.60;;;;;;5042102;28;20478;-68
2022/10/06 06:56:44;;;;;;;;;;;30.70;66.80;;;;;;5032458;28;20313;-68
2022/10/06 06:59:12;;;;;;;20.75;4.05;;;30.60;68.40;;;;;;5044874;28;19962;-68
2022/10/06 07:01:44;;;;;;;13.00;3.10;;;30.60;68.90;;;;;;5037812;28;20036;-68
2022/10/06 07:04:12;;;;;;;18.30;3.10;;;30.60;67.90;;;;;;5040664;28;20017;-69
2022/10/06 07:06:39;;;;;;;16.80;3.65;;;30.50;68.20;;;;;;5043300;28;20021;-68
2022/10/06 07:09:07;;;;;;;14.77;2.75;;;30.50;68.70;;;;;;5044949;28;20021;-66
2022/10/06 07:11:36;;;;;;;14.32;2.72;;;30.40;67.80;;;;;;5044805;28;20048;-67
2022/10/06 07:14:05;;;;;;;20.50;3.42;;;30.40;67.90;;;;;;5042251;28;20029;-67
2022/10/06 07:25:11;;;;;;;23.20;3.10;;;30.30;68.80;;;;;;5044382;28;20040;-68
2022/10/06 07:27:52;;;;;;;20.73;3.40;;;30.30;68.50;;;;;;5042469;28;20138;-67
2022/10/06 07:30:24;;;;;;;16.08;3.15;;;30.30;68.00;;;;;;5043563;28;20043;-67
2022/10/06 07:32:52;;;;;;;19.52;3.70;;;30.20;66.80;;;;;;5042342;28;20048;-69
2022/10/06 07:35:20;;;;;;;12.18;3.67;;;30.20;66.20;;;;;;5040972;28;20033;-68
2022/10/06 07:37:47;;;;;;;20.45;3.42;;;30.10;66.40;;;;;;5050663;28;20021;-65
2022/10/06 07:40:14;;;;;;;15.80;3.10;;;30.00;65.90;;;;;;5044922;28;20043;-68
2022/10/06 07:42:47;;;;;;;17.92;3.80;;;30.20;66.10;;;;;;5044869;28;20061;-67
2022/10/06 07:45:43;;;;;;;21.55;3.60;;;30.20;65.60;;;;;;5045245;28;20513;-67
2022/10/06 07:48:16;;;;;;;19.67;3.08;;;30.20;65.00;;;;;;5041985;28;20497;-68
2022/10/06 07:50:46;;;;;;;14.35;3.55;;;30.20;65.10;;;;;;5042886;28;20021;-66
2022/10/06 07:53:14;;;;;;;18.13;3.50;;;30.20;65.30;;;;;;5045622;28;20036;-67
2022/10/06 07:55:43;;;;;;;21.13;3.67;;;30.10;65.30;;;;;;5036460;28;20027;-67
2022/10/06 07:58:12;;;;;;;15.18;3.38;;;30.10;65.20;;;;;;5042283;28;20025;-67
2022/10/06 08:00:40;;;;;;;14.35;3.50;;;30.10;65.30;;;;;;5041871;28;20465;-67
2022/10/06 08:03:07;;;;;;;25.63;3.95;;;30.10;65.20;;;;;;5044796;28;20026;-66
2022/10/06 08:05:34;;;;;;;19.08;3.30;;;30.10;65.60;;;;;;5044982;28;20029;-67
2022/10/06 08:08:00;;;;;;;14.52;3.38;;;29.90;66.10;;;;;;5046067;28;20021;-66
2022/10/06 08:10:27;;;;;;;22.85;4.00;;;30.00;66.60;;;;;;5050395;28;20025;-68
2022/10/06 08:12:53;;;;;;;18.35;3.58;;;30.00;66.90;;;;;;5045963;28;20112;-67
2022/10/06 08:15:20;;;;;;;32.58;3.70;;;30.00;67.00;;;;;;5041849;28;20029;-70
2022/10/06 08:17:46;;;;;;;16.92;3.45;;;30.00;67.20;;;;;;5042622;28;20068;-66
2022/10/06 08:20:15;;;;;;;15.20;3.38;;;30.00;67.50;;;;;;5043957;28;20167;-66
2022/10/06 08:22:42;;;;;;;13.57;4.05;;;29.90;67.40;;;;;;5040558;28;20033;-66
2022/10/06 08:25:09;;;;;;;24.92;4.05;;;29.90;67.90;;;;;;5046537;28;20033;-67
2022/10/06 08:27:37;;;;;;;19.77;4.20;;;29.80;68.00;;;;;;5042683;28;20028;-66
2022/10/06 08:30:06;;;;;;;17.17;3.40;;;29.80;68.20;;;;;;5048463;28;20060;-67
2022/10/06 08:32:33;;;;;;;23.27;3.47;;;29.80;69.30;;;;;;5038225;28;20398;-66
2022/10/06 08:34:59;;;;;;;18.75;3.72;;;29.70;68.60;;;;;;5044158;28;20112;-65
2022/10/06 08:37:26;;;;;;;24.73;3.70;;;29.70;68.90;;;;;;5048168;28;20065;-66
2022/10/06 08:39:54;;;;;;;16.10;3.75;;;29.70;69.10;;;;;;5044202;28;20028;-65
2022/10/06 08:42:41;;;;;;;15.43;3.63;;;29.70;69.70;;;;;;5045042;28;20025;-67
2022/10/06 08:45:17;;;;;;;;;;;29.70;69.80;;;;;;5043582;28;20475;-66
2022/10/06 08:47:53;;;;;;;17.63;3.97;;;29.60;69.80;;;;;;5043288;28;19959;-67
2022/10/06 08:50:21;;;;;;;29.30;4.17;;;29.50;70.60;;;;;;5042747;28;20051;-68
2022/10/06 08:52:51;;;;;;;15.70;3.92;;;29.50;71.20;;;;;;5039103;28;20048;-67
2022/10/06 08:55:30;;;;;;;23.40;4.35;;;29.50;71.30;;;;;;5040085;28;20032;-67
2022/10/06 08:57:56;;;;;;;16.52;4.03;;;29.40;72.40;;;;;;5042538;28;20029;-66
2022/10/06 09:00:23;;;;;;;26.17;4.30;;;29.30;72.50;;;;;;5045577;28;20021;-67
2022/10/06 09:02:50;;;;;;;20.90;4.45;;;29.20;73.10;;;;;;5040170;28;20025;-66
2022/10/06 09:05:25;;;;;;;19.83;4.93;;;29.20;73.70;;;;;;5040467;28;20534;-67
2022/10/06 09:08:09;;;;;;;23.55;4.43;;;29.10;73.50;;;;;;5041509;28;20033;-69
2022/10/06 09:10:54;;;;;;;20.45;4.80;;;28.80;73.80;;;;;;5042911;28;20021;-65
2022/10/06 09:13:31;;;;;;;16.70;4.20;;;28.90;74.60;;;;;;5040606;28;20033;-70
2022/10/06 09:16:16;;;;;;;17.25;4.43;;;28.90;75.20;;;;;;5042067;28;20030;-69
2022/10/06 09:18:54;;;;;;;19.75;3.63;;;28.90;75.00;;;;;;5038653;28;20029;-69
2022/10/06 09:21:39;;;;;;;16.50;4.07;;;28.90;75.40;;;;;;5045127;28;20171;-68
2022/10/06 09:24:15;;;;;;;13.68;3.65;;;28.90;76.30;;;;;;5041036;28;20558;-68
2022/10/06 09:26:44;;;;;;;19.67;3.33;;;28.90;75.80;;;;;;5037931;28;20106;-70
2022/10/06 09:29:11;;;;;;;13.20;3.42;;;28.80;76.30;;;;;;5036161;28;20025;-67
2022/10/06 09:31:46;;;;;;;21.42;3.28;;;28.80;76.20;;;;;;5037702;28;20026;-69
2022/10/06 09:34:15;;;;;;;13.70;3.13;;;28.80;76.30;;;;;;5040925;28;20034;-68
2022/10/06 09:37:11;;;;;;;13.98;3.00;;;28.60;77.30;;;;;;5040551;28;20112;-69
2022/10/06 09:39:40;;;;;;;11.23;3.25;;;28.50;79.40;;;;;;5044449;28;20386;-68
2022/10/06 09:42:34;;;;;;;14.73;2.95;;;28.30;81.00;;;;;;5037037;28;20103;-68
2022/10/06 09:45:16;;;;;;;15.95;2.97;;;28.30;81.80;;;;;;5042373;28;20040;-70
2022/10/06 09:47:44;;;;;;;6.80;2.40;;;28.40;83.20;;;;;;5040653;28;20029;-67
2022/10/06 09:50:21;;;;;;;13.20;3.13;;;28.20;84.70;;;;;;5044159;28;20021;-69
2022/10/06 09:52:59;;;;;;;9.25;2.67;;;28.00;87.00;;;;;;5035188;28;20557;-70
2022/10/06 09:55:28;;;;;;;9.27;3.03;;;27.90;89.50;;;;;;5037630;28;20108;-69
2022/10/06 09:57:56;;;;;;;8.10;2.42;;;28.00;90.40;;;;;;5040856;28;20021;-69
2022/10/06 10:00:35;;;;;;;8.25;2.50;;;27.90;91.00;;;;;;5042973;28;20029;-68
2022/10/06 10:03:05;;;;;;;14.68;2.83;;;27.90;91.40;;;;;;5037853;28;20080;-69
2022/10/06 10:05:35;;;;;;;9.95;3.53;;;27.90;91.90;;;;;;5040509;28;20028;-71
2022/10/06 10:08:18;;;;;;;6.50;2.45;;;27.90;92.80;;;;;;5044339;28;20120;-70
2022/10/06 10:10:44;;;;;;;10.85;3.00;;;27.80;92.90;;;;;;5042446;28;20033;-71
2022/10/06 10:13:25;;;;;;;10.85;2.80;;;27.70;93.60;;;;;;5035649;28;20052;-70
2022/10/06 10:16:02;;;;;;;10.05;2.72;;;27.70;94.30;;;;;;5040016;28;20047;-69
2022/10/06 10:18:30;;;;;;;9.48;2.72;;;27.70;94.60;;;;;;5037013;28;20025;-69
2022/10/06 10:21:03;;;;;;;8.82;3.10;;;27.60;94.80;;;;;;5039683;28;20487;-69
2022/10/06 10:23:41;;;;;;;9.18;2.60;;;27.60;95.40;;;;;;5041521;28;20044;-68
2022/10/06 10:26:16;;;;;;;17.33;3.17;;;27.60;95.60;;;;;;5039553;28;20418;-69
2022/10/06 10:28:55;;;;;;;11.32;3.33;;;27.60;96.00;;;;;;5042293;28;20457;-69
2022/10/06 10:31:22;;;;;;;9.13;2.92;;;27.70;96.30;;;;;;5043283;28;20040;-69
2022/10/06 10:34:13;;;;;;;7.53;2.70;;;27.60;96.40;;;;;;5039162;28;20486;-69
2022/10/06 10:36:49;;;;;;;19.58;3.22;;;27.60;96.70;;;;;;5039865;28;20479;-70
2022/10/06 10:39:49;;;;;;;8.23;2.75;;;27.60;97.00;;;;;;5044281;28;20516;-69
2022/10/06 10:42:28;;;;;;;16.20;3.25;;;27.60;97.00;;;;;;5026231;28;20036;-70
2022/10/06 10:45:00;;;;;;;8.05;2.90;;;27.60;96.80;;;;;;5044891;28;20025;-70
2022/10/06 10:47:43;;;;;;;11.32;3.10;;;27.60;97.40;;;;;;5046952;28;20021;-68
2022/10/06 10:50:25;;;;;;;9.27;2.72;;;27.50;97.40;;;;;;5043165;28;20030;-70
2022/10/06 10:53:01;;;;;;;10.85;2.85;;;27.50;97.50;;;;;;5043202;28;20044;-68
2022/10/06 10:55:33;;;;;;;7.28;2.50;;;27.50;97.60;;;;;;5041645;28;20025;-68
2022/10/06 10:58:10;;;;;;;9.82;2.50;;;27.50;98.30;;;;;;5044583;28;20086;-68
2022/10/06 11:00:42;;;;;;;11.80;2.38;;;27.50;98.40;;;;;;5042326;28;20032;-68
2022/10/06 11:03:10;;;;;;;14.32;2.95;;;27.40;98.60;;;;;;5045782;28;20248;-68
2022/10/06 11:06:07;;;;;;;5.63;2.58;;;27.50;98.70;;;;;;5041551;28;20096;-70
2022/10/06 11:08:54;;;;;;;15.63;3.25;;;27.40;98.90;;;;;;5045471;28;21664;-69
2022/10/06 11:11:36;;;;;;;10.70;2.53;;;27.40;99.10;;;;;;5044175;28;20026;-70
2022/10/06 11:14:12;;;;;;;9.93;2.92;;;27.30;99.50;;;;;;5043173;28;20092;-69
2022/10/06 11:17:02;;;;;;;8.27;2.25;;;27.30;99.70;;;;;;5044837;28;20032;-69
2022/10/06 11:19:51;;;;;;;12.80;2.85;;;27.40;99.80;;;;;;5045140;28;20124;-70
2022/10/06 11:22:54;;;;;;;7.18;2.88;;;27.20;99.90;;;;;;5041059;28;20033;-69
2022/10/06 11:25:46;;;;;;;7.65;2.42;;;27.00;99.90;;;;;;5041771;28;20020;-67
2022/10/06 11:28:26;;;;;;;15.27;2.90;;;27.00;99.90;;;;;;4981605;28;20047;-68
2022/10/06 11:31:12;;;;;;;12.00;2.63;;;27.10;99.90;;;;;;4984670;28;20072;-70
2022/10/06 11:33:53;;;;;;;9.82;2.70;;;27.20;99.90;;;;;;4984680;28;20391;-68
2022/10/06 11:36:29;;;;;;;9.45;2.75;;;27.10;99.90;;;;;;4979891;28;20066;-69
2022/10/06 11:39:01;;;;;;;6.07;2.35;;;27.10;99.90;;;;;;4980778;28;20144;-71
2022/10/06 11:41:36;;;;;;;7.75;2.53;;;26.90;99.90;;;;;;4986699;28;20026;-70
2022/10/06 11:44:18;;;;;;;9.45;2.58;;;26.80;99.90;;;;;;4983303;28;20089;-68
2022/10/06 11:46:54;;;;;;;8.95;2.45;;;26.70;99.90;;;;;;4980772;28;20464;-69
2022/10/06 11:49:33;;;;;;;7.15;2.55;;;26.50;99.90;;;;;;4981949;28;20035;-68
2022/10/06 11:52:05;;;;;;;7.43;2.80;;;26.50;99.90;;;;;;4980851;28;20158;-67
2022/10/06 11:54:52;;;;;;;15.13;2.63;;;26.30;99.90;;;;;;4981843;28;20105;-69
2022/10/06 11:57:27;;;;;;;8.40;2.25;;;26.30;99.90;;;;;;4989440;28;20030;-68
2022/10/06 12:00:03;;;;;;;10.40;2.77;;;26.30;99.90;;;;;;4985276;28;20029;-70
2022/10/06 12:02:32;;;;;;;6.95;2.60;;;26.30;99.90;;;;;;4976992;28;20030;-70
2022/10/06 12:05:14;;;;;;;10.35;2.20;;;26.40;99.90;;;;;;5010467;28;20041;-70
2022/10/06 12:07:56;;;;;;;9.73;2.63;;;26.40;99.90;;;;;;5043508;28;20108;-68
2022/10/06 12:10:28;;;;;;;10.20;2.70;;;26.30;99.90;;;;;;5043951;28;20029;-69
2022/10/06 12:13:18;;;;;;;13.43;3.17;;;26.20;99.90;;;;;;5043446;28;20021;-69
2022/10/06 12:16:03;;;;;;;9.02;2.38;;;26.20;99.90;;;;;;5034526;28;20032;-68
2022/10/06 12:18:37;;;;;;;9.00;2.92;;;26.10;99.90;;;;;;5045477;28;20029;-70
2022/10/06 12:21:12;;;;;;;11.65;3.35;;;26.10;99.90;;;;;;5044642;28;20041;-71
2022/10/06 12:23:47;;;;;;;15.75;3.03;;;26.10;99.90;;;;;;5049522;28;20060;-70
2022/10/06 12:26:26;;;;;;;16.63;2.80;;;26.20;99.90;;;;;;5044713;28;20033;-70
2022/10/06 12:29:22;;;;;;;9.93;3.40;;;26.10;99.90;;;;;;5041720;28;20040;-68
2022/10/06 12:32:11;;;;;;;14.15;3.13;;;26.20;99.90;;;;;;5032423;28;20053;-68
2022/10/06 12:34:59;;;;;;;13.45;3.28;;;26.30;99.90;;;;;;5041823;28;20517;-68
2022/10/06 12:37:29;;;;;;;12.75;3.17;;;26.20;99.90;;;;;;5046203;28;20024;-67
2022/10/06 12:40:43;;;;;;;13.43;3.25;;;26.10;99.90;;;;;;5043969;28;20390;-69
2022/10/06 12:43:19;;;;;;;11.60;2.80;;;26.10;99.90;;;;;;5040222;28;20060;-68
2022/10/06 12:46:10;;;;;;;13.60;3.20;;;26.10;99.90;;;;;;5041604;28;20021;-68
2022/10/06 12:48:43;;;;;;;10.75;3.40;;;26.10;99.90;;;;;;5042843;28;20044;-69
2022/10/06 12:51:12;;;;;;;6.30;2.90;;;26.10;99.90;;;;;;5045282;28;20092;-69
2022/10/06 12:53:55;;;;;;;14.20;2.95;;;26.10;99.90;;;;;;5044529;28;20025;-70
2022/10/06 12:56:34;;;;;;;12.07;3.53;;;26.00;99.90;;;;;;5043501;28;20075;-69
2022/10/06 12:59:23;;;;;;;13.02;3.40;;;26.10;99.90;;;;;;5040881;28;20434;-70
2022/10/06 13:02:10;;;;;;;17.20;3.53;;;26.20;99.90;;;;;;5041156;28;20451;-70
2022/10/06 13:04:59;;;;;;;12.57;3.60;;;26.10;99.90;;;;;;5037491;28;20037;-71
2022/10/06 13:07:28;;;;;;;12.25;3.70;;;26.00;99.90;;;;;;5042094;28;20116;-69
2022/10/06 13:10:15;;;;;;;10.60;3.97;;;26.00;99.90;;;;;;5041112;28;20088;-70
2022/10/06 13:12:46;;;;;;;15.52;4.57;;;26.10;99.90;;;;;;5031982;28;20183;-70